CW9533 Torre Faro Messina IT current weather conditions

sailwx.info

Wind from 267 at 0 knots gusting 3

Air temperature 12.8° C
Dewpoint 9.6° C

Last reported at 2016-Feb-09 02:41 UTC.
Time now 2016-Feb-09 03:28 UTC

Location: N 38°16' E 015°39'.
View on Google Maps.

See reports from other nearby stations

  
Tides and Currents Weather Stations Pressure Air Temp Water Temp Dewpoint Dewpoint Depression Visibility Wind Speed Wind Dir Waves Ship Positions
date/time (UTC)wind fromknots sea level pressurealtimeterstation pressurevisibilityair tempwater tempwave heightnotes
2016-Feb-09 02:41 267 0 gusting 3 12.8
2016-Feb-09 02:26 267 13.3
2016-Feb-09 02:11 267 3 gusting 6 13.3
2016-Feb-09 01:56 267 1 gusting 8 13.3
2016-Feb-09 01:41 267 2 gusting 5 12.8
2016-Feb-09 01:26 267 0 gusting 3 12.8
2016-Feb-09 01:11 267 1 gusting 5 13.3
2016-Feb-09 00:56 267 1 gusting 6 13.3
2016-Feb-09 00:41 267 3 gusting 6 12.8
2016-Feb-09 00:26 260 0 gusting 4 12.8
2016-Feb-09 00:11 260 12.8
2016-Feb-08 23:56 260 12.8
2016-Feb-08 23:40 260 12.8
2016-Feb-08 23:25 260 12.8
2016-Feb-08 23:10 260 0 gusting 2 12.2
2016-Feb-08 22:55 260 12.2
2016-Feb-08 22:40 260 12.2
2016-Feb-08 22:25 260 0 gusting 4 12.2
2016-Feb-08 22:10 260 2 gusting 4 12.2
2016-Feb-08 21:55 260 0 gusting 4 12.2
2016-Feb-08 21:40 260 2 gusting 4 12.8
2016-Feb-08 21:25 260 2 gusting 4 12.8
2016-Feb-08 21:10 260 2 gusting 4 12.8
2016-Feb-08 20:55 260 0 gusting 4 13.3
2016-Feb-08 20:40 260 13.3
2016-Feb-08 20:25 261 0 gusting 2 13.3
2016-Feb-08 20:10 261 1 gusting 5 12.8
2016-Feb-08 19:55 261 3 gusting 6 12.8
2016-Feb-08 19:40 257 4 gusting 7 12.8
2016-Feb-08 19:25 249 3 gusting 6 12.8
2016-Feb-08 19:10 248 3 gusting 6 13.3
2016-Feb-08 18:55 248 2 gusting 6 13.3
2016-Feb-08 18:40 249 2 gusting 6 13.3
2016-Feb-08 18:25 249 3 gusting 6 13.3
2016-Feb-08 18:10 249 2 gusting 5 13.3
2016-Feb-08 17:55 249 2 gusting 6 12.8
2016-Feb-08 17:40 248 2 gusting 6 13.3
2016-Feb-08 17:25 248 0 gusting 6 13.9
2016-Feb-08 17:10 248 0 gusting 3 14.4
2016-Feb-08 16:55 248 2 gusting 8 14.4
2016-Feb-08 16:40 248 3 gusting 9 14.4
2016-Feb-08 16:25 248 4 gusting 7 15.0
2016-Feb-08 16:10 248 5 gusting 9 15.0
2016-Feb-08 15:55 248 6 gusting 11 15.0
2016-Feb-08 15:40 249 5 gusting 9 15.0
2016-Feb-08 15:25 249 4 gusting 11 15.0
2016-Feb-08 15:10 249 5 gusting 11 15.0
2016-Feb-08 14:55 249 6 gusting 11 15.0
2016-Feb-08 14:40 249 6 gusting 13 15.0
2016-Feb-08 14:25 249 5 gusting 11 15.6
2016-Feb-08 14:10 249 4 gusting 12 15.0
2016-Feb-08 13:55 249 5 gusting 10 15.6
2016-Feb-08 13:40 249 3 gusting 10 15.0
2016-Feb-08 13:25 249 5 gusting 10 15.0
2016-Feb-08 13:10 249 3 gusting 9 15.0
2016-Feb-08 12:55 249 3 gusting 7 13.9
2016-Feb-08 12:40 249 3 gusting 6 13.9
2016-Feb-08 12:25 249 2 gusting 5 13.3
2016-Feb-08 12:10 249 1 gusting 4 13.3
2016-Feb-08 11:55 248 1 gusting 4 12.8
2016-Feb-08 11:40 248 2 gusting 6 12.8
2016-Feb-08 11:25 248 1 gusting 6 12.8
2016-Feb-08 11:10 248 1 gusting 6 12.8
2016-Feb-08 10:55 248 1 gusting 4 12.2
2016-Feb-08 10:40 248 3 gusting 6 12.2
2016-Feb-08 10:25 249 3 gusting 8 12.8
2016-Feb-08 10:10 249 2 gusting 9 12.8
2016-Feb-08 09:55 249 6 gusting 11 12.2
2016-Feb-08 09:40 249 6 gusting 13 12.2
2016-Feb-08 09:25 249 5 gusting 11 12.2
2016-Feb-08 09:09 248 4 gusting 8 12.2
2016-Feb-08 08:54 248 6 gusting 10 12.2
2016-Feb-08 08:39 248 6 gusting 10 12.8
2016-Feb-08 08:24 248 4 gusting 11 13.3
2016-Feb-08 08:09 248 9 gusting 18 13.9
2016-Feb-08 07:54 248 6 gusting 11 14.4
2016-Feb-08 07:39 247 5 gusting 13 14.4
2016-Feb-08 07:24 247 6 gusting 13 14.4
2016-Feb-08 07:09 248 6 gusting 12 14.4
2016-Feb-08 06:54 248 5 gusting 13 14.4
2016-Feb-08 06:39
2016-Feb-08 06:24
2016-Feb-08 06:09
2016-Feb-08 05:54
2016-Feb-08 05:39
2016-Feb-08 05:24
2016-Feb-08 05:09
2016-Feb-08 04:54
2016-Feb-08 04:39
2016-Feb-08 04:24 248 6 gusting 17 13.9
2016-Feb-08 04:08 248 8 gusting 18 13.9
2016-Feb-08 03:53 248 7 gusting 17 13.9
2016-Feb-08 03:38 248 10 gusting 26 13.9
2016-Feb-08 03:23 248 7 gusting 21 13.9
2016-Feb-08 03:08 248 7 gusting 20 13.9
2016-Feb-08 02:53 249 6 gusting 15 13.9
2016-Feb-08 02:38 249 7 gusting 13 13.9
2016-Feb-08 02:23 248 8 gusting 15 13.9
2016-Feb-08 02:08 249 9 gusting 21 13.9
2016-Feb-08 01:53 250 9 gusting 19 13.9
2016-Feb-08 01:38 250 7 gusting 24 13.9
2016-Feb-08 01:23 249 8 gusting 16 14.4
2016-Feb-08 01:08 249 8 gusting 20 14.4
2016-Feb-08 00:53 249 10 gusting 20 14.4
2016-Feb-08 00:38 249 8 gusting 19 14.4
2016-Feb-08 00:23 249 10 gusting 17 14.4
2016-Feb-08 00:08 248 10 gusting 19 14.4
2016-Feb-07 23:53 249 12 gusting 19 14.4
2016-Feb-07 23:38 249 9 gusting 21 14.4
2016-Feb-07 23:23 249 10 gusting 22 13.9
2016-Feb-07 23:08 248 10 gusting 23 13.9
2016-Feb-07 22:53 249 10 gusting 22 14.4
2016-Feb-07 22:38 249 8 gusting 21 14.4
2016-Feb-07 22:23 249 7 gusting 18 14.4
2016-Feb-07 22:08 250 11 gusting 25 14.4
2016-Feb-07 21:53 249 11 gusting 19 14.4
2016-Feb-07 21:38 249 10 gusting 25 13.9
2016-Feb-07 21:23 248 12 gusting 19 13.9
2016-Feb-07 21:08 248 13 gusting 23 13.9
2016-Feb-07 20:53 249 12 gusting 25 13.9
2016-Feb-07 20:38 250 9 gusting 19 13.9
2016-Feb-07 20:23 249 13 gusting 28 13.9
2016-Feb-07 20:08 248 14 gusting 27 13.9
2016-Feb-07 19:53 249 11 gusting 26 13.9
2016-Feb-07 19:38 249 12 gusting 26 13.9
2016-Feb-07 19:23 249 13 gusting 22 13.9
2016-Feb-07 19:08 249 13 gusting 28 13.9
2016-Feb-07 18:53 249 12 gusting 26 13.9
2016-Feb-07 18:38 250 12 gusting 22 13.9
2016-Feb-07 18:23 252 11 gusting 25 13.9
2016-Feb-07 18:08 249 12 gusting 24 13.9
2016-Feb-07 17:53 249 11 gusting 25 13.9
2016-Feb-07 17:38 249 10 gusting 19 13.9
2016-Feb-07 17:23 248 13 gusting 26 13.9
2016-Feb-07 17:08 249 12 gusting 24 13.9
2016-Feb-07 16:53 251 8 gusting 23 13.9
2016-Feb-07 16:38 249 10 gusting 19 13.9
2016-Feb-07 16:23 249 11 gusting 21 13.9
2016-Feb-07 16:08 252 10 gusting 19 13.9
2016-Feb-07 15:53 249 11 gusting 20 13.9
2016-Feb-07 15:37 249 12 gusting 26 13.9
2016-Feb-07 15:22 249 9 gusting 19 13.9
2016-Feb-07 15:07 249 11 gusting 19 13.9
2016-Feb-07 14:52 249 10 gusting 19 13.9
2016-Feb-07 14:37 250 9 gusting 22 13.9
2016-Feb-07 14:22 249 9 gusting 19 13.9
2016-Feb-07 14:07 250 10 gusting 23 13.9
2016-Feb-07 13:52 249 9 gusting 21 13.9
2016-Feb-07 13:37 250 11 gusting 21 13.9
2016-Feb-07 13:22 249 11 gusting 23 13.9
2016-Feb-07 13:07 249 10 gusting 24 13.9
2016-Feb-07 12:52 249 8 gusting 26 13.9
2016-Feb-07 12:37 249 10 gusting 23 13.9
2016-Feb-07 12:22 249 11 gusting 21 13.3
2016-Feb-07 12:07 249 8 gusting 21 13.3
2016-Feb-07 11:52 249 13 gusting 21 13.3
2016-Feb-07 11:37 250 11 gusting 24 13.3
2016-Feb-07 11:22 250 11 gusting 19 13.3
2016-Feb-07 11:07 250 11 gusting 21 13.3
2016-Feb-07 10:52 250 10 gusting 20 13.3
2016-Feb-07 10:37 250 6 gusting 19 13.3
2016-Feb-07 10:22 250 9 gusting 22 13.3
2016-Feb-07 10:07 250 10 gusting 17 12.8
2016-Feb-07 09:52 250 9 gusting 18 12.2
2016-Feb-07 09:37 250 9 gusting 15 12.2
2016-Feb-07 09:22 250 9 gusting 15 12.2
2016-Feb-07 09:07 250 9 gusting 18 12.8
2016-Feb-07 08:52 250 7 gusting 16 12.2
2016-Feb-07 08:37 250 4 gusting 9 11.7
2016-Feb-07 08:22 250 4 gusting 9 11.7
2016-Feb-07 08:07 250 3 gusting 7 11.7
2016-Feb-07 07:52 250 6 gusting 12 11.7
2016-Feb-07 07:37 250 3 gusting 8 11.7
2016-Feb-07 07:22 252 2 gusting 4 11.1
2016-Feb-07 07:07 252 1 gusting 6 11.1
2016-Feb-07 06:52 250 2 gusting 5 11.1
2016-Feb-07 06:37 250 4 gusting 7 11.1
2016-Feb-07 06:22 250 3 gusting 7 11.1
2016-Feb-07 06:07
2016-Feb-07 05:51
2016-Feb-07 05:36
2016-Feb-07 05:21
2016-Feb-07 05:06
2016-Feb-07 04:51 252 3 gusting 8 10.6
2016-Feb-07 04:36 257 4 gusting 7 10.6
2016-Feb-07 04:21 259 2 gusting 6 10.6
2016-Feb-07 04:06 259 4 gusting 7 10.6
2016-Feb-07 03:51 266 4 gusting 7 10.0
2016-Feb-07 03:36 269 3 gusting 6 10.0
2016-Feb-07 03:21 269 1 gusting 5 10.0
2016-Feb-07 03:06 269 1 gusting 5 10.0